Terminal Aerodrome Forecast
Issued by NWS Twin Cities, MN

Home | Current Version | Previous Version | Text Only | Print | Product List | Glossary Off
Versions: 1 2 3 4 5 6 7 8 9 10 11 12 13 14 15

000
FTUS43 KMPX 280520
TAFEAU
TAF
KEAU 280520Z 2806/0106 22004KT P6SM SKC
     FM280900 19002KT P6SM SKC
     FM281900 18009KT P6SM SCT070
     FM010500 17006KT P6SM OVC030=

USA.gov is the U.S. government's official web portal to all federal, state and local government web resources and services.